Terminal Aerodrome Forecast
Issued by NWS Cleveland, OH

Home | Current Version | Previous Version | Text Only | Print | Product List | Glossary On
Versions: 1 2 3 4 5 6 7 8 9 10 11 12 13 14 15 16 17
000
FTUS41 KCLE 301500 AAA
TAFTOL
TAF AMD
KTOL 301557Z 3016/3112 23004KT P6SM SCT030 BKN070
     FM301800 27006KT P6SM VCSH BKN050
     FM302200 27004KT P6SM SCT070=

USA.gov is the U.S. government's official web portal to all federal, state and local government web resources and services.